Login to view products. 
Friday, April 28, 2017 (10:11 UTC)
Fujairah International Airport
ICAO Code: OMFJ
IATA Code: FJR
  • METAR OMFJ 281000Z 09010KT 060V110 6000 NSC 33/24 Q1009 A2979=
  • TAF OMFJ 280500Z 2806/2912 08010KT 6000 NSC BECMG 2814/2816 15004KT BECMG 2820/2822 VRB03KT TEMPO 2820/2905 4000 HZ BECMG 2906/2908 10008KT=